PWSweather.com
Personal Weather Stations
Station Observations
KAZPHOEN90
RayThunderhill, Phoenix, AZ

RayThunderhillPhoenix, AZ

Lat: 33.312, Lon: -112.029

Elevation: 1260

Station Type: Davis Vantage VUE

High Low Average
Temperature 89.3°F31.8°C 71.7°F22.1°C 82.1°F27.8°C
Dew Point 65.9°F18.8°C 53.9°F12.2°C 60.5°F15.8°C
Winds 10.4 mph 16.7 kmh Calm Calm 1.0 mph S1.6 kmh S
Wind Gusts 17.0 mph27.4 kmh -- 2.0 mph3.2 kmh
Humidity 82% 32% 49%
Pressure 29.89 in1012.2 mb 29.75 in1007.5 mb -
Precipitation 0.03 in0.8 mm - -
Hour Temp Dew Point Humidity Winds Wind Gusts Pressure Precip Precip Rate Daily Precip Total
12:00 AM 87.4°F30.8°C 53.9°F12.2°C 32% 2.4 mph NNW3.9 kmh NNW 5.0 mph8.0 kmh 29.75 in1007.5 mb 0.00 in0.0 mm 0.00 in/hr0.0 mm/hr 0.00 in0.0 mm
12:15 AM 86.5°F30.3°C 54.0°F12.2°C 33% 0.9 mph NW1.4 kmh NW 8.0 mph12.9 kmh 29.75 in1007.5 mb 0.00 in0.0 mm 0.00 in/hr0.0 mm/hr 0.00 in0.0 mm
12:30 AM 86.0°F30.0°C 54.4°F12.4°C 34% 0.1 mph NNW0.2 kmh NNW 1.0 mph1.6 kmh 29.75 in1007.5 mb 0.00 in0.0 mm 0.00 in/hr0.0 mm/hr 0.00 in0.0 mm
12:45 AM 86.0°F30.0°C 54.4°F12.4°C 34% 0.3 mph E0.5 kmh E 1.0 mph1.6 kmh 29.75 in1007.5 mb 0.00 in0.0 mm 0.00 in/hr0.0 mm/hr 0.00 in0.0 mm
01:00 AM 85.1°F29.5°C 55.9°F13.3°C 37% Calm Calm -- 29.75 in1007.5 mb 0.00 in0.0 mm 0.00 in/hr0.0 mm/hr 0.00 in0.0 mm
01:15 AM 85.7°F29.8°C 55.7°F13.2°C 36% 1.3 mph SE2.1 kmh SE 4.0 mph6.4 kmh 29.75 in1007.5 mb 0.00 in0.0 mm 0.00 in/hr0.0 mm/hr 0.00 in0.0 mm
01:30 AM 85.0°F29.4°C 57.3°F14.1°C 39% 0.5 mph SE0.8 kmh SE 1.0 mph1.6 kmh 29.75 in1007.5 mb 0.00 in0.0 mm 0.00 in/hr0.0 mm/hr 0.00 in0.0 mm
01:45 AM 84.4°F29.1°C 58.8°F14.9°C 42% Calm Calm -- 29.75 in1007.5 mb 0.00 in0.0 mm 0.00 in/hr0.0 mm/hr 0.00 in0.0 mm
02:00 AM 83.2°F28.4°C 59.6°F15.3°C 45% Calm Calm -- 29.75 in1007.5 mb 0.00 in0.0 mm 0.00 in/hr0.0 mm/hr 0.00 in0.0 mm
02:15 AM 82.5°F28.1°C 59.0°F15.0°C 45% Calm Calm -- 29.75 in1007.5 mb 0.00 in0.0 mm 0.00 in/hr0.0 mm/hr 0.00 in0.0 mm
02:30 AM 81.8°F27.7°C 58.4°F14.7°C 45% Calm Calm -- 29.75 in1007.5 mb 0.00 in0.0 mm 0.00 in/hr0.0 mm/hr 0.00 in0.0 mm
02:45 AM 80.8°F27.1°C 58.1°F14.5°C 46% Calm Calm -- 29.75 in1007.5 mb 0.00 in0.0 mm 0.00 in/hr0.0 mm/hr 0.00 in0.0 mm
03:00 AM 81.1°F27.3°C 57.7°F14.3°C 45% Calm Calm -- 29.76 in1007.8 mb 0.00 in0.0 mm 0.00 in/hr0.0 mm/hr 0.00 in0.0 mm
03:15 AM 81.1°F27.3°C 59.6°F15.3°C 48% Calm Calm -- 29.75 in1007.5 mb 0.00 in0.0 mm 0.00 in/hr0.0 mm/hr 0.00 in0.0 mm
03:30 AM 80.8°F27.1°C 58.7°F14.8°C 47% Calm Calm -- 29.76 in1007.8 mb 0.00 in0.0 mm 0.00 in/hr0.0 mm/hr 0.00 in0.0 mm
03:45 AM 80.7°F27.1°C 58.6°F14.8°C 47% Calm Calm -- 29.77 in1008.1 mb 0.00 in0.0 mm 0.00 in/hr0.0 mm/hr 0.00 in0.0 mm
04:00 AM 80.4°F26.9°C 58.9°F14.9°C 48% Calm Calm -- 29.76 in1007.8 mb 0.00 in0.0 mm 0.00 in/hr0.0 mm/hr 0.00 in0.0 mm
04:15 AM 80.6°F27.0°C 59.7°F15.4°C 49% Calm Calm -- 29.76 in1007.8 mb 0.00 in0.0 mm 0.00 in/hr0.0 mm/hr 0.00 in0.0 mm
04:30 AM 80.2°F26.8°C 59.3°F15.2°C 49% Calm Calm -- 29.76 in1007.8 mb 0.00 in0.0 mm 0.00 in/hr0.0 mm/hr 0.00 in0.0 mm
04:45 AM 79.5°F26.4°C 58.6°F14.8°C 49% Calm Calm -- 29.76 in1007.8 mb 0.00 in0.0 mm 0.00 in/hr0.0 mm/hr 0.00 in0.0 mm
05:00 AM 79.5°F26.4°C 58.7°F14.8°C 49% Calm Calm -- 29.76 in1007.8 mb 0.00 in0.0 mm 0.00 in/hr0.0 mm/hr 0.00 in0.0 mm
05:15 AM 79.9°F26.6°C 59.6°F15.3°C 50% Calm Calm -- 29.76 in1007.8 mb 0.00 in0.0 mm 0.00 in/hr0.0 mm/hr 0.00 in0.0 mm
05:30 AM 79.5°F26.4°C 59.2°F15.1°C 50% Calm Calm -- 29.76 in1007.8 mb 0.00 in0.0 mm 0.00 in/hr0.0 mm/hr 0.00 in0.0 mm
05:45 AM 79.0°F26.1°C 59.9°F15.5°C 52% Calm Calm -- 29.77 in1008.1 mb 0.00 in0.0 mm 0.00 in/hr0.0 mm/hr 0.00 in0.0 mm
06:00 AM 79.0°F26.1°C 59.3°F15.2°C 51% Calm Calm -- 29.77 in1008.1 mb 0.00 in0.0 mm 0.00 in/hr0.0 mm/hr 0.00 in0.0 mm
06:15 AM 79.4°F26.3°C 59.1°F15.1°C 50% Calm Calm -- 29.78 in1008.5 mb 0.00 in0.0 mm 0.00 in/hr0.0 mm/hr 0.00 in0.0 mm
06:30 AM 79.9°F26.6°C 59.6°F15.3°C 50% Calm Calm -- 29.79 in1008.8 mb 0.00 in0.0 mm 0.00 in/hr0.0 mm/hr 0.00 in0.0 mm
06:45 AM 80.1°F26.7°C 61.4°F16.3°C 53% Calm Calm -- 29.79 in1008.8 mb 0.00 in0.0 mm 0.00 in/hr0.0 mm/hr 0.00 in0.0 mm
07:00 AM 80.2°F26.8°C 60.9°F16.1°C 52% Calm Calm -- 29.79 in1008.8 mb 0.00 in0.0 mm 0.00 in/hr0.0 mm/hr 0.00 in0.0 mm
07:15 AM 80.7°F27.1°C 60.9°F16.1°C 51% Calm Calm -- 29.79 in1008.8 mb 0.00 in0.0 mm 0.00 in/hr0.0 mm/hr 0.00 in0.0 mm
07:30 AM 81.1°F27.3°C 60.7°F15.9°C 50% Calm Calm -- 29.80 in1009.1 mb 0.00 in0.0 mm 0.00 in/hr0.0 mm/hr 0.00 in0.0 mm
07:45 AM 81.7°F27.6°C 60.1°F15.6°C 48% Calm Calm 1.0 mph1.6 kmh 29.80 in1009.1 mb 0.00 in0.0 mm 0.00 in/hr0.0 mm/hr 0.00 in0.0 mm
08:00 AM 82.3°F27.9°C 60.1°F15.6°C 47% Calm Calm -- 29.80 in1009.1 mb 0.00 in0.0 mm 0.00 in/hr0.0 mm/hr 0.00 in0.0 mm
08:15 AM 82.7°F28.2°C 60.4°F15.8°C 47% Calm Calm -- 29.81 in1009.5 mb 0.00 in0.0 mm 0.00 in/hr0.0 mm/hr 0.00 in0.0 mm
08:30 AM 82.9°F28.3°C 59.4°F15.2°C 45% Calm Calm -- 29.82 in1009.8 mb 0.00 in0.0 mm 0.00 in/hr0.0 mm/hr 0.00 in0.0 mm
08:45 AM 83.3°F28.5°C 60.4°F15.8°C 46% Calm Calm -- 29.82 in1009.8 mb 0.00 in0.0 mm 0.00 in/hr0.0 mm/hr 0.00 in0.0 mm
09:00 AM 83.7°F28.7°C 61.9°F16.6°C 48% Calm Calm 1.0 mph1.6 kmh 29.82 in1009.8 mb 0.00 in0.0 mm 0.00 in/hr0.0 mm/hr 0.00 in0.0 mm
09:15 AM 84.3°F29.1°C 60.0°F15.6°C 44% Calm Calm -- 29.84 in1010.5 mb 0.00 in0.0 mm 0.00 in/hr0.0 mm/hr 0.00 in0.0 mm
09:30 AM 85.4°F29.7°C 61.0°F16.1°C 44% Calm Calm -- 29.83 in1010.2 mb 0.00 in0.0 mm 0.00 in/hr0.0 mm/hr 0.00 in0.0 mm
09:45 AM 87.0°F30.6°C 61.2°F16.2°C 42% 2.6 mph NW4.2 kmh NW 3.0 mph4.8 kmh 29.83 in1010.2 mb 0.00 in0.0 mm 0.00 in/hr0.0 mm/hr 0.00 in0.0 mm
10:00 AM 87.4°F30.8°C 61.5°F16.4°C 42% 2.8 mph NW4.5 kmh NW 5.0 mph8.0 kmh 29.84 in1010.5 mb 0.00 in0.0 mm 0.00 in/hr0.0 mm/hr 0.00 in0.0 mm
10:15 AM 86.9°F30.5°C 58.9°F14.9°C 39% 2.8 mph NW4.5 kmh NW 7.0 mph11.3 kmh 29.84 in1010.5 mb 0.00 in0.0 mm 0.00 in/hr0.0 mm/hr 0.00 in0.0 mm
10:30 AM 85.5°F29.7°C 57.7°F14.3°C 39% 2.4 mph N3.9 kmh N 7.0 mph11.3 kmh 29.84 in1010.5 mb 0.00 in0.0 mm 0.00 in/hr0.0 mm/hr 0.00 in0.0 mm
10:45 AM 84.5°F29.2°C 58.2°F14.6°C 41% 2.8 mph SW4.5 kmh SW 5.0 mph8.0 kmh 29.86 in1011.2 mb 0.00 in0.0 mm 0.00 in/hr0.0 mm/hr 0.00 in0.0 mm
11:00 AM 82.8°F28.2°C 57.4°F14.1°C 42% 5.6 mph WNW9.0 kmh WNW 10.0 mph16.1 kmh 29.86 in1011.2 mb 0.00 in0.0 mm 0.00 in/hr0.0 mm/hr 0.00 in0.0 mm
11:15 AM 82.9°F28.3°C 59.4°F15.2°C 45% 1.3 mph W2.1 kmh W 5.0 mph8.0 kmh 29.86 in1011.2 mb 0.00 in0.0 mm 0.00 in/hr0.0 mm/hr 0.00 in0.0 mm
11:30 AM 83.0°F28.3°C 59.5°F15.3°C 45% 1.3 mph WSW2.1 kmh WSW 2.0 mph3.2 kmh 29.85 in1010.8 mb 0.00 in0.0 mm 0.00 in/hr0.0 mm/hr 0.00 in0.0 mm
11:45 AM 82.7°F28.2°C 61.0°F16.1°C 48% 4.7 mph N7.6 kmh N 10.0 mph16.1 kmh 29.82 in1009.8 mb 0.00 in0.0 mm 0.00 in/hr0.0 mm/hr 0.00 in0.0 mm
12:00 PM 82.7°F28.2°C 59.8°F15.4°C 46% 6.6 mph NW10.6 kmh NW 9.0 mph14.5 kmh 29.81 in1009.5 mb 0.00 in0.0 mm 0.00 in/hr0.0 mm/hr 0.00 in0.0 mm
12:15 PM 82.7°F28.2°C 59.8°F15.4°C 46% 3.5 mph NW5.6 kmh NW 6.0 mph9.7 kmh 29.82 in1009.8 mb 0.00 in0.0 mm 0.00 in/hr0.0 mm/hr 0.00 in0.0 mm
12:30 PM 82.3°F27.9°C 60.7°F15.9°C 48% 5.5 mph N8.9 kmh N 9.0 mph14.5 kmh 29.83 in1010.2 mb 0.00 in0.0 mm 0.00 in/hr0.0 mm/hr 0.00 in0.0 mm
12:45 PM 83.1°F28.4°C 61.4°F16.3°C 48% 0.8 mph SE1.3 kmh SE 1.0 mph1.6 kmh 29.84 in1010.5 mb 0.00 in0.0 mm 0.00 in/hr0.0 mm/hr 0.00 in0.0 mm
01:00 PM 84.0°F28.9°C 62.2°F16.8°C 48% Calm Calm -- 29.85 in1010.8 mb 0.00 in0.0 mm 0.00 in/hr0.0 mm/hr 0.00 in0.0 mm
01:15 PM 84.3°F29.1°C 60.6°F15.9°C 45% Calm Calm -- 29.84 in1010.5 mb 0.00 in0.0 mm 0.00 in/hr0.0 mm/hr 0.00 in0.0 mm
01:30 PM 84.0°F28.9°C 62.2°F16.8°C 48% Calm Calm -- 29.84 in1010.5 mb 0.00 in0.0 mm 0.00 in/hr0.0 mm/hr 0.00 in0.0 mm
01:45 PM 82.9°F28.3°C 65.0°F18.3°C 55% Calm Calm -- 29.84 in1010.5 mb 0.00 in0.0 mm 0.00 in/hr0.0 mm/hr 0.00 in0.0 mm
02:00 PM 83.8°F28.8°C 65.4°F18.6°C 54% Calm Calm -- 29.82 in1009.8 mb 0.00 in0.0 mm 0.00 in/hr0.0 mm/hr 0.00 in0.0 mm
02:15 PM 85.1°F29.5°C 63.2°F17.3°C 48% 0.2 mph NNW0.3 kmh NNW 2.0 mph3.2 kmh 29.81 in1009.5 mb 0.00 in0.0 mm 0.00 in/hr0.0 mm/hr 0.00 in0.0 mm
02:30 PM 85.3°F29.6°C 60.3°F15.7°C 43% 1.7 mph N2.7 kmh N 3.0 mph4.8 kmh 29.81 in1009.5 mb 0.00 in0.0 mm 0.00 in/hr0.0 mm/hr 0.00 in0.0 mm
02:45 PM 85.4°F29.7°C 61.6°F16.4°C 45% Calm Calm -- 29.81 in1009.5 mb 0.00 in0.0 mm 0.00 in/hr0.0 mm/hr 0.00 in0.0 mm
03:00 PM 85.3°F29.6°C 61.5°F16.4°C 45% 0.3 mph S0.5 kmh S 3.0 mph4.8 kmh 29.80 in1009.1 mb 0.00 in0.0 mm 0.00 in/hr0.0 mm/hr 0.00 in0.0 mm
03:15 PM 85.1°F29.5°C 61.4°F16.3°C 45% Calm Calm 1.0 mph1.6 kmh 29.79 in1008.8 mb 0.00 in0.0 mm 0.00 in/hr0.0 mm/hr 0.00 in0.0 mm
03:30 PM 85.8°F29.9°C 61.3°F16.3°C 44% Calm Calm -- 29.78 in1008.5 mb 0.00 in0.0 mm 0.00 in/hr0.0 mm/hr 0.00 in0.0 mm
03:45 PM 87.0°F30.6°C 61.8°F16.6°C 43% Calm Calm 1.0 mph1.6 kmh 29.77 in1008.1 mb 0.00 in0.0 mm 0.00 in/hr0.0 mm/hr 0.00 in0.0 mm
04:00 PM 86.8°F30.4°C 61.6°F16.4°C 43% Calm Calm -- 29.77 in1008.1 mb 0.00 in0.0 mm 0.00 in/hr0.0 mm/hr 0.00 in0.0 mm
04:15 PM 86.4°F30.2°C 61.9°F16.6°C 44% Calm Calm 1.0 mph1.6 kmh 29.77 in1008.1 mb 0.00 in0.0 mm 0.00 in/hr0.0 mm/hr 0.00 in0.0 mm
04:30 PM 86.5°F30.3°C 62.7°F17.1°C 45% 0.2 mph NW0.3 kmh NW 1.0 mph1.6 kmh 29.78 in1008.5 mb 0.00 in0.0 mm 0.00 in/hr0.0 mm/hr 0.00 in0.0 mm
04:45 PM 88.2°F31.2°C 62.2°F16.8°C 42% Calm Calm -- 29.77 in1008.1 mb 0.00 in0.0 mm 0.00 in/hr0.0 mm/hr 0.00 in0.0 mm
05:00 PM 88.6°F31.4°C 61.9°F16.6°C 41% Calm Calm 1.0 mph1.6 kmh 29.77 in1008.1 mb 0.00 in0.0 mm 0.00 in/hr0.0 mm/hr 0.00 in0.0 mm
05:15 PM 87.6°F30.9°C 60.3°F15.7°C 40% 0.6 mph ESE1.0 kmh ESE 1.0 mph1.6 kmh 29.78 in1008.5 mb 0.00 in0.0 mm 0.00 in/hr0.0 mm/hr 0.00 in0.0 mm
05:30 PM 87.7°F30.9°C 60.4°F15.8°C 40% 0.1 mph SE0.2 kmh SE 1.0 mph1.6 kmh 29.78 in1008.5 mb 0.00 in0.0 mm 0.00 in/hr0.0 mm/hr 0.00 in0.0 mm
05:45 PM 89.3°F31.8°C 59.6°F15.3°C 37% Calm Calm -- 29.78 in1008.5 mb 0.00 in0.0 mm 0.00 in/hr0.0 mm/hr 0.00 in0.0 mm
06:00 PM 87.9°F31.1°C 59.1°F15.1°C 38% Calm Calm -- 29.79 in1008.8 mb 0.00 in0.0 mm 0.00 in/hr0.0 mm/hr 0.00 in0.0 mm
06:15 PM 86.1°F30.1°C 59.6°F15.3°C 41% Calm Calm -- 29.77 in1008.1 mb 0.00 in0.0 mm 0.00 in/hr0.0 mm/hr 0.00 in0.0 mm
06:30 PM 85.1°F29.5°C 59.4°F15.2°C 42% Calm Calm -- 29.78 in1008.5 mb 0.00 in0.0 mm 0.00 in/hr0.0 mm/hr 0.00 in0.0 mm
06:45 PM 84.3°F29.1°C 58.7°F14.8°C 42% Calm Calm -- 29.78 in1008.5 mb 0.00 in0.0 mm 0.00 in/hr0.0 mm/hr 0.00 in0.0 mm
07:00 PM 83.9°F28.8°C 59.7°F15.4°C 44% Calm Calm -- 29.78 in1008.5 mb 0.00 in0.0 mm 0.00 in/hr0.0 mm/hr 0.00 in0.0 mm
07:15 PM 83.4°F28.6°C 59.9°F15.5°C 45% Calm Calm -- 29.78 in1008.5 mb 0.00 in0.0 mm 0.00 in/hr0.0 mm/hr 0.00 in0.0 mm
07:30 PM 83.4°F28.6°C 59.8°F15.4°C 45% Calm Calm -- 29.79 in1008.8 mb 0.00 in0.0 mm 0.00 in/hr0.0 mm/hr 0.00 in0.0 mm
07:45 PM 84.2°F29.0°C 59.9°F15.5°C 44% 0.3 mph WSW0.5 kmh WSW -- 29.81 in1009.5 mb 0.00 in0.0 mm 0.00 in/hr0.0 mm/hr 0.00 in0.0 mm
08:00 PM 80.4°F26.9°C 64.7°F18.2°C 59% 7.7 mph NW12.4 kmh NW 10.0 mph16.1 kmh 29.83 in1010.2 mb 0.00 in0.0 mm 0.00 in/hr0.0 mm/hr 0.00 in0.0 mm
08:15 PM 76.6°F24.8°C 64.9°F18.3°C 67% 10.4 mph W16.7 kmh W 17.0 mph27.4 kmh 29.85 in1010.8 mb 0.00 in0.0 mm 0.00 in/hr0.0 mm/hr 0.00 in0.0 mm
08:30 PM 74.8°F23.8°C 64.7°F18.2°C 71% 8.5 mph WSW13.7 kmh WSW 11.0 mph17.7 kmh 29.85 in1010.8 mb 0.00 in0.0 mm 0.00 in/hr0.0 mm/hr 0.00 in0.0 mm
08:45 PM 73.9°F23.3°C 65.5°F18.6°C 75% 6.5 mph W10.5 kmh W 17.0 mph27.4 kmh 29.87 in1011.5 mb 0.00 in0.0 mm 0.00 in/hr0.0 mm/hr 0.00 in0.0 mm
09:00 PM 72.0°F22.2°C 65.5°F18.6°C 80% 7.1 mph WSW11.4 kmh WSW 9.0 mph14.5 kmh 29.89 in1012.2 mb 0.01 in0.3 mm 0.01 in/hr0.3 mm/hr 0.01 in0.3 mm
09:15 PM 71.7°F22.1°C 65.9°F18.8°C 82% 4.3 mph WNW6.9 kmh WNW 12.0 mph19.3 kmh 29.89 in1012.2 mb 0.01 in0.3 mm 0.04 in/hr1.0 mm/hr 0.02 in0.5 mm
09:30 PM 71.7°F22.1°C 65.9°F18.8°C 82% 1.3 mph W2.1 kmh W 4.0 mph6.4 kmh 29.87 in1011.5 mb 0.01 in0.3 mm 0.04 in/hr1.0 mm/hr 0.03 in0.8 mm
09:45 PM 72.6°F22.6°C 65.7°F18.7°C 79% 0.4 mph W0.6 kmh W 1.0 mph1.6 kmh 29.86 in1011.2 mb 0.00 in0.0 mm 0.00 in/hr0.0 mm/hr 0.03 in0.8 mm
10:00 PM 73.4°F23.0°C 64.2°F17.9°C 73% 0.2 mph W0.3 kmh W 1.0 mph1.6 kmh 29.86 in1011.2 mb 0.00 in0.0 mm 0.00 in/hr0.0 mm/hr 0.03 in0.8 mm
10:15 PM 74.4°F23.6°C 61.9°F16.6°C 65% 0.3 mph WNW0.5 kmh WNW 3.0 mph4.8 kmh 29.85 in1010.8 mb 0.00 in0.0 mm 0.00 in/hr0.0 mm/hr 0.03 in0.8 mm
10:30 PM 75.3°F24.1°C 60.0°F15.6°C 59% 1.1 mph W1.8 kmh W 5.0 mph8.0 kmh 29.84 in1010.5 mb 0.00 in0.0 mm 0.00 in/hr0.0 mm/hr 0.03 in0.8 mm
10:45 PM 75.2°F24.0°C 60.4°F15.8°C 60% Calm Calm 1.0 mph1.6 kmh 29.84 in1010.5 mb 0.00 in0.0 mm 0.00 in/hr0.0 mm/hr 0.03 in0.8 mm
11:00 PM 75.4°F24.1°C 61.0°F16.1°C 61% 0.2 mph ESE0.3 kmh ESE -- 29.84 in1010.5 mb 0.00 in0.0 mm 0.00 in/hr0.0 mm/hr 0.03 in0.8 mm
11:15 PM 73.6°F23.1°C 62.8°F17.1°C 69% Calm Calm -- 29.84 in1010.5 mb 0.00 in0.0 mm 0.00 in/hr0.0 mm/hr 0.03 in0.8 mm
11:30 PM 72.5°F22.5°C 64.1°F17.8°C 75% 0.2 mph NE0.3 kmh NE 1.0 mph1.6 kmh 29.85 in1010.8 mb 0.00 in0.0 mm 0.00 in/hr0.0 mm/hr 0.03 in0.8 mm
11:45 PM 71.9°F22.2°C 65.4°F18.6°C 80% 0.2 mph ENE0.3 kmh ENE 1.0 mph1.6 kmh 29.86 in1011.2 mb 0.00 in0.0 mm 0.00 in/hr0.0 mm/hr 0.03 in0.8 mm